Time;durP1;ratioP1;P1;durP2;ratioP2;P2;SDS_P1;SDS_P2;PMS_P1;PMS_P2;Temp;Humidity;BMP_temperature;BMP_pressure;BME280_temperature;BME280_humidity;BME280_pressure;Samples;Min_cycle;Max_cycle;Signal;HPM_P1;HPM_P2
2022/10/11 00:00:40;;;;;;;;;;;8.70;99.90;;;;;;5143866;27;20386;-56
2022/10/11 00:03:18;;;;;;;;;;;8.60;99.90;;;;;;5102925;27;19928;-55
2022/10/11 00:05:58;;;;;;;;;;;8.60;99.90;;;;;;5098408;27;19920;-56
2022/10/11 00:08:39;;;;;;;;;;;8.60;99.90;;;;;;5055192;28;19934;-56
2022/10/11 00:11:19;;;;;;;;;;;8.50;99.90;;;;;;5072946;27;19958;-56
2022/10/11 00:13:57;;;;;;;;;;;8.50;99.90;;;;;;5106605;27;19924;-56
2022/10/11 00:16:43;;;;;;;;;;;8.40;99.90;;;;;;5052529;28;19950;-55
2022/10/11 00:19:21;;;;;;;;;;;8.30;99.90;;;;;;5083043;27;19917;-56
2022/10/11 00:21:59;;;;;;;;;;;8.30;99.90;;;;;;5139216;27;20829;-53
2022/10/11 00:24:38;;;;;;;;;;;8.20;99.90;;;;;;5105918;27;20302;-56
2022/10/11 00:27:18;;;;;;;;;;;8.10;99.90;;;;;;5063443;28;19958;-56
2022/10/11 00:30:00;;;;;;;;;;;8.00;99.90;;;;;;5090357;27;19942;-55
2022/10/11 00:32:39;;;;;;;;;;;8.00;99.90;;;;;;5096729;27;19916;-56
2022/10/11 00:35:17;;;;;;;;;;;8.00;99.90;;;;;;5102878;27;20428;-56
2022/10/11 00:37:56;;;;;;;;;;;7.90;99.90;;;;;;5089143;27;20269;-56
2022/10/11 00:40:37;;;;;;;;;;;7.90;99.90;;;;;;5098759;27;19954;-56
2022/10/11 00:43:19;;;;;;;;;;;7.80;99.90;;;;;;5110800;27;19930;-56
2022/10/11 00:46:01;;;;;;;;;;;7.80;99.90;;;;;;5108047;27;19920;-56
2022/10/11 00:48:49;;;;;;;;;;;7.80;99.90;;;;;;5041867;28;19929;-56
2022/10/11 00:51:42;;;;;;;;;;;7.80;99.90;;;;;;5090236;27;20387;-56
2022/10/11 00:54:22;;;;;;;;;;;7.70;99.90;;;;;;5065424;28;19917;-56
2022/10/11 00:57:05;;;;;;;;;;;7.70;99.90;;;;;;5106617;27;19912;-58
2022/10/11 00:59:50;;;;;;;;;;;7.70;99.90;;;;;;5101587;27;19932;-55
2022/10/11 01:02:29;;;;;;;;;;;7.70;99.90;;;;;;5093751;27;20401;-56
2022/10/11 01:05:09;;;;;;;;;;;7.70;99.90;;;;;;5101018;27;19920;-55
2022/10/11 01:08:07;;;;;;;;;;;7.70;99.90;;;;;;5166964;27;20434;-56
2022/10/11 01:10:45;;;;;;;;;;;7.70;99.90;;;;;;5126483;27;19952;-56
2022/10/11 01:13:38;;;;;;;;;;;7.70;99.90;;;;;;5111735;27;19976;-56
2022/10/11 01:16:32;;;;;;;;;;;7.60;99.90;;;;;;5068175;27;19962;-56
2022/10/11 01:19:12;;;;;;;;;;;7.60;99.90;;;;;;5082375;27;19925;-56
2022/10/11 01:22:05;;;;;;;;;;;7.60;99.90;;;;;;5166127;27;20269;-55
2022/10/11 01:24:44;;;;;;;;;;;7.60;99.90;;;;;;5101195;27;19916;-56
2022/10/11 01:27:24;;;;;;;;;;;7.60;99.90;;;;;;5104977;27;19926;-56
2022/10/11 01:30:13;;;;;;;;;;;7.70;99.90;;;;;;5154129;27;19923;-56
2022/10/11 01:33:00;;;;;;;;;;;7.60;99.90;;;;;;5091897;27;19951;-56
2022/10/11 01:36:00;;;;;;;;;;;7.70;99.90;;;;;;5046005;28;19921;-56
2022/10/11 01:38:43;;;;;;;;;;;7.70;99.90;;;;;;5111704;27;19918;-56
2022/10/11 01:41:28;;;;;;;;;;;7.70;99.90;;;;;;5097874;27;19917;-56
2022/10/11 01:44:07;;;;;;;;;;;7.70;99.90;;;;;;5067663;28;19916;-56
2022/10/11 01:46:46;;;;;;;;;;;5.40;99.90;;;;;;5066691;27;19930;-55
2022/10/11 01:49:24;;;;;;;;;;;7.70;99.90;;;;;;5097749;27;19920;-55
2022/10/11 01:52:04;;;;;;;;;;;7.80;99.90;;;;;;5094074;27;19924;-55
2022/10/11 01:55:00;;;;;;;;;;;7.80;99.90;;;;;;5044100;28;20323;-55
2022/10/11 01:58:01;;;;;;;;;;;7.80;99.90;;;;;;5108024;27;19916;-56
2022/10/11 02:00:59;;;;;;;;;;;7.80;99.90;;;;;;5088488;27;19920;-55
2022/10/11 02:03:48;;;;;;;;;;;7.90;99.90;;;;;;5105805;27;20338;-55
2022/10/11 02:06:42;;;;;;;;;;;7.90;99.90;;;;;;5064278;28;20355;-55
2022/10/11 02:09:30;;;;;;;;;;;7.90;99.90;;;;;;5098635;27;19961;-55
2022/10/11 02:12:10;;;;;;;;;;;8.00;99.90;;;;;;5135006;27;19924;-55
2022/10/11 02:14:52;;;;;;;;;;;8.00;99.90;;;;;;5108241;27;19924;-55
2022/10/11 02:17:32;;;;;;;;;;;8.00;99.90;;;;;;5100871;27;1977497;-55
2022/10/11 02:20:14;;;;;;;;;;;8.00;99.90;;;;;;5060396;28;19950;-56
2022/10/11 02:22:59;;;;;;;;;;;8.00;99.90;;;;;;5145814;27;19965;-56
2022/10/11 02:25:37;;;;;;;;;;;8.00;99.90;;;;;;5075282;28;20388;-55
2022/10/11 02:28:18;;;;;;;;;;;8.00;99.90;;;;;;5069233;28;19912;-53
2022/10/11 02:30:58;;;;;;;;;;;8.00;99.90;;;;;;5090203;27;19916;-55
2022/10/11 02:33:43;;;;;;;;;;;8.00;99.90;;;;;;5069250;28;19946;-56
2022/10/11 02:36:25;;;;;;;;;;;8.00;99.90;;;;;;5066143;28;19920;-56
2022/10/11 02:39:10;;;;;;;;;;;8.00;99.90;;;;;;5071011;28;19930;-55
2022/10/11 02:41:49;;;;;;;;;;;8.00;99.90;;;;;;5067996;28;19946;-56
2022/10/11 02:44:34;;;;;;;;;;;8.00;99.90;;;;;;5109499;27;20390;-55
2022/10/11 02:47:14;;;;;;;;;;;8.00;99.90;;;;;;5089526;27;19917;-55
2022/10/11 02:49:53;;;;;;;;;;;7.90;99.90;;;;;;5069070;28;19954;-56
2022/10/11 02:52:31;;;;;;;;;;;7.90;99.90;;;;;;5109768;27;19961;-56
2022/10/11 02:55:10;;;;;;;;;;;7.90;99.90;;;;;;5109999;27;19916;-55
2022/10/11 02:57:48;;;;;;;;;;;7.90;99.90;;;;;;5069302;28;20436;-55
2022/10/11 03:00:26;;;;;;;;;;;7.80;99.90;;;;;;5069125;28;19926;-53
2022/10/11 03:03:04;;;;;;;;;;;7.80;99.90;;;;;;5109782;27;19926;-55
2022/10/11 03:05:44;;;;;;;;;;;7.70;99.90;;;;;;5069279;28;19912;-55
2022/10/11 03:08:22;;;;;;;;;;;7.70;99.90;;;;;;5109878;27;19912;-55
2022/10/11 03:11:02;;;;;;;;;;;7.60;99.90;;;;;;5130351;27;19912;-56
2022/10/11 03:13:42;;;;;;;;;;;7.50;99.90;;;;;;5089509;27;20380;-55
2022/10/11 03:16:22;;;;;;;;;;;7.40;99.90;;;;;;5069204;28;19913;-56
2022/10/11 03:19:01;;;;;;;;;;;7.40;99.90;;;;;;5069254;28;19970;-55
2022/10/11 03:21:39;;;;;;;;;;;7.30;99.90;;;;;;5089406;27;19916;-56
2022/10/11 03:24:18;;;;;;;;;;;7.20;99.90;;;;;;5109758;27;20406;-56
2022/10/11 03:26:58;;;;;;;;;;;7.10;99.90;;;;;;5069345;28;19950;-55
2022/10/11 03:29:37;;;;;;;;;;;7.00;99.90;;;;;;5069349;28;20421;-55
2022/10/11 03:32:16;;;;;;;;;;;7.00;99.90;;;;;;5109659;27;19926;-56
2022/10/11 03:34:54;;;;;;;;;;;6.90;99.90;;;;;;5089471;28;19912;-56
2022/10/11 03:37:32;;;;;;;;;;;6.80;99.90;;;;;;5109821;27;19944;-56
2022/10/11 03:40:10;;;;;;;;;;;6.80;99.90;;;;;;5089440;28;19912;-56
2022/10/11 03:42:48;;;;;;;;;;;6.70;99.90;;;;;;5069245;28;19954;-55
2022/10/11 03:45:26;;;;;;;;;;;6.60;99.90;;;;;;5068721;28;19962;-56
2022/10/11 03:48:05;;;;;;;;;;;6.60;99.90;;;;;;5089119;28;19912;-56
2022/10/11 03:50:43;;;;;;;;;;;6.50;99.90;;;;;;5089351;27;19968;-56
2022/10/11 03:53:23;;;;;;;;;;;6.60;99.90;;;;;;5069306;28;19916;-56
2022/10/11 03:56:02;;;;;;;;;;;6.50;99.90;;;;;;5069243;28;20351;-56
2022/10/11 03:58:45;;;;;;;;;;;6.40;99.90;;;;;;5109854;27;20403;-56
2022/10/11 04:01:24;;;;;;;;;;;6.40;99.90;;;;;;5109899;27;19912;-55
2022/10/11 04:04:02;;;;;;;;;;;6.30;99.90;;;;;;5109795;27;20389;-56
2022/10/11 04:06:42;;;;;;;;;;;6.30;99.90;;;;;;5068744;28;20326;-56
2022/10/11 04:09:21;;;;;;;;;;;6.20;99.90;;;;;;5115892;27;19912;-55
2022/10/11 04:12:00;;;;;;;;;;;6.20;99.90;;;;;;5089450;28;19913;-56
2022/10/11 04:14:38;;;;;;;;;;;6.10;99.90;;;;;;5109797;27;19912;-55
2022/10/11 04:17:16;;;;;;;;;;;6.10;99.90;;;;;;5069268;28;19913;-55
2022/10/11 04:19:56;;;;;;;;;;;6.10;99.90;;;;;;5069136;28;19912;-55
2022/10/11 04:22:34;;;;;;;;;;;6.00;99.90;;;;;;5089197;27;19912;-56
2022/10/11 04:25:14;;;;;;;;;;;6.00;99.90;;;;;;5109993;27;19912;-56
2022/10/11 04:27:52;;;;;;;;;;;5.90;99.90;;;;;;5069204;28;19916;-55
2022/10/11 04:30:30;;;;;;;;;;;5.90;99.90;;;;;;5109676;27;20335;-55
2022/10/11 04:33:10;;;;;;;;;;;5.90;99.90;;;;;;5089257;27;20376;-55
2022/10/11 04:35:54;;;;;;;;;;;5.90;99.90;;;;;;5087906;28;19924;-56
2022/10/11 04:38:33;;;;;;;;;;;6.00;99.90;;;;;;5089465;28;19927;-55
2022/10/11 04:41:13;;;;;;;;;;;6.00;99.90;;;;;;5107710;27;19913;-55
2022/10/11 04:43:52;;;;;;;;;;;6.00;99.90;;;;;;5069340;28;19927;-55
2022/10/11 04:46:33;;;;;;;;;;;6.10;99.90;;;;;;5068410;28;19946;-55
2022/10/11 04:49:12;;;;;;;;;;;6.00;99.90;;;;;;5026086;28;20369;-55
2022/10/11 04:51:52;;;;;;;;;;;6.10;99.90;;;;;;5065779;28;19950;-55
2022/10/11 04:54:34;;;;;;;;;;;6.10;99.90;;;;;;5106339;27;19916;-56
2022/10/11 04:57:12;;;;;;;;;;;6.00;99.90;;;;;;5106491;27;19916;-56
2022/10/11 04:59:52;;;;;;;;;;;6.00;99.90;;;;;;5106404;27;20665;-57
2022/10/11 05:02:30;;;;;;;;;;;6.00;99.90;;;;;;5058250;28;20372;-56
2022/10/11 05:05:08;;;;;;;;;;;5.90;99.90;;;;;;5103534;27;19951;-56
2022/10/11 05:07:46;;;;;;;;;;;5.80;99.90;;;;;;5062354;28;19931;-55
2022/10/11 05:10:26;;;;;;;;;;;5.80;99.90;;;;;;5113561;27;19954;-56
2022/10/11 05:13:04;;;;;;;;;;;5.70;99.90;;;;;;5108404;27;19916;-55
2022/10/11 05:15:44;;;;;;;;;;;5.60;99.90;;;;;;5103363;27;20294;-56
2022/10/11 05:18:24;;;;;;;;;;;5.60;99.90;;;;;;5054427;28;19933;-56
2022/10/11 05:21:05;;;;;;;;;;;5.50;99.90;;;;;;5103846;27;19920;-56
2022/10/11 05:23:48;;;;;;;;;;;5.50;99.90;;;;;;5106702;27;19927;-56
2022/10/11 05:26:28;;;;;;;;;;;5.40;99.90;;;;;;5106491;27;19916;-56
2022/10/11 05:29:19;;;;;;;;;;;5.30;99.90;;;;;;5065627;28;20580;-56
2022/10/11 05:31:58;;;;;;;;;;;5.30;99.90;;;;;;5063684;28;19917;-56
2022/10/11 05:34:39;;;;;;;;;;;5.20;99.90;;;;;;5089615;27;19921;-56
2022/10/11 05:37:17;;;;;;;;;;;5.20;99.90;;;;;;5164136;27;19948;-55
2022/10/11 05:39:57;;;;;;;;;;;5.10;99.90;;;;;;5159130;27;20281;-55
2022/10/11 05:42:37;;;;;;;;;;;5.10;99.90;;;;;;5107226;27;19916;-55
2022/10/11 05:45:16;;;;;;;;;;;5.10;99.90;;;;;;5065823;28;19917;-56
2022/10/11 05:47:55;;;;;;;;;;;5.00;99.90;;;;;;5049225;28;19921;-55
2022/10/11 05:50:35;;;;;;;;;;;5.00;99.90;;;;;;5100997;27;20379;-55
2022/10/11 05:53:15;;;;;;;;;;;4.90;99.90;;;;;;5113003;27;19918;-56
2022/10/11 05:55:54;;;;;;;;;;;4.90;99.90;;;;;;5048534;28;19931;-58
2022/10/11 05:58:32;;;;;;;;;;;4.90;99.90;;;;;;5125768;27;19915;-55
2022/10/11 06:01:19;;;;;;;;;;;4.80;99.90;;;;;;5103999;27;19965;-55
2022/10/11 06:04:00;;;;;;;;;;;4.80;99.90;;;;;;5093632;27;20397;-56
2022/10/11 06:06:41;;;;;;;;;;;4.80;99.90;;;;;;5104937;27;20549;-57
2022/10/11 06:09:21;;;;;;;;;;;4.70;99.90;;;;;;5101028;27;20370;-57
2022/10/11 06:12:01;;;;;;;;;;;4.70;99.90;;;;;;5106282;27;19938;-56
2022/10/11 06:14:54;;;;;;;;;;;4.70;99.90;;;;;;5098586;27;19920;-56
2022/10/11 06:17:53;;;;;;;;;;;4.60;99.90;;;;;;5104247;27;20004;-57
2022/10/11 06:20:50;;;;;;;;;;;4.60;99.90;;;;;;5144768;27;19973;-55
2022/10/11 06:23:51;;;;;;;;;;;4.60;99.90;;;;;;5135430;27;20295;-56
2022/10/11 06:26:56;;;;;;;;;;;4.60;99.90;;;;;;5147230;27;20366;-55
2022/10/11 06:29:49;;;;;;;;;;;4.60;99.90;;;;;;5084572;27;20370;-57
2022/10/11 06:32:56;;;;;;;;;;;4.50;99.90;;;;;;5102554;27;20070;-56
2022/10/11 06:35:56;;;;;;;;;;;4.50;99.90;;;;;;5084778;27;19917;-56
2022/10/11 06:38:53;;;;;;;;;;;4.50;99.90;;;;;;5076825;27;20019;-56
2022/10/11 06:41:51;;;;;;;;;;;4.50;99.90;;;;;;5145620;27;19919;-55
2022/10/11 06:44:48;;;;;;;;;;;4.40;99.90;;;;;;5090087;27;19924;-55
2022/10/11 06:47:45;;;;;;;;;;;4.40;99.90;;;;;;5102914;27;20527;-56
2022/10/11 06:50:41;;;;;;;;;;;4.40;99.90;;;;;;5158796;27;20302;-56
2022/10/11 06:53:54;;;;;;;;;;;4.40;99.90;;;;;;5097466;27;20462;-57
2022/10/11 06:56:50;;;;;;;;;;;4.40;99.90;;;;;;5132420;27;20363;-57
2022/10/11 06:59:48;;;;;;;;;;;4.50;99.90;;;;;;5129806;27;19920;-57
2022/10/11 07:02:43;;;;;;;;;;;4.50;99.90;;;;;;5089376;27;20253;-56
2022/10/11 07:05:39;;;;;;;;;;;4.50;99.90;;;;;;5130791;27;20399;-56
2022/10/11 07:08:46;;;;;;;;;;;4.60;99.90;;;;;;5080061;27;19921;-56
2022/10/11 07:11:38;;;;;;;;;;;4.60;99.90;;;;;;5091184;27;19920;-56
2022/10/11 07:14:31;;;;;;;;;;;4.60;99.90;;;;;;5103650;27;20359;-56
2022/10/11 07:17:32;;;;;;;;;;;4.70;99.90;;;;;;5023379;27;19931;-57
2022/10/11 07:20:39;;;;;;;;;;;4.80;99.90;;;;;;5012638;27;19949;-55
2022/10/11 07:23:37;;;;;;;;;;;4.90;99.90;;;;;;5101114;27;20422;-55
2022/10/11 07:26:36;;;;;;;;;;;4.90;99.90;;;;;;5099099;27;20299;-56
2022/10/11 07:29:40;;;;;;;;;;;5.00;99.90;;;;;;5010895;27;19922;-55
2022/10/11 07:32:37;;;;;;;;;;;5.10;99.90;;;;;;5131303;27;19919;-55
2022/10/11 07:35:35;;;;;;;;;;;5.20;99.90;;;;;;5086197;27;19919;-57
2022/10/11 07:38:45;;;;;;;;;;;5.30;99.90;;;;;;5124186;27;20393;-57
2022/10/11 07:41:50;;;;;;;;;;;5.30;99.90;;;;;;5026216;27;20391;-56
2022/10/11 07:44:47;;;;;;;;;;;5.50;99.90;;;;;;5100173;27;19938;-56
2022/10/11 07:47:45;;;;;;;;;;;5.60;99.90;;;;;;5147327;27;20403;-56
2022/10/11 07:50:40;;;;;;;;;;;5.60;99.90;;;;;;5139668;27;20351;-55
2022/10/11 07:53:39;;;;;;;;;;;5.80;99.90;;;;;;5147229;27;20340;-56
2022/10/11 07:56:31;;;;;;;;;;;5.90;99.90;;;;;;5087221;27;20311;-56
2022/10/11 07:59:33;;;;;;;;;;;5.90;99.90;;;;;;5084724;27;20067;-57
2022/10/11 08:02:28;;;;;;;;;;;6.00;99.90;;;;;;5106543;27;19957;-56
2022/10/11 08:05:22;;;;;;;;;;;6.10;99.90;;;;;;5105686;27;20014;-55
2022/10/11 08:08:32;;;;;;;;;;;6.30;99.90;;;;;;5115879;27;20113;-56
2022/10/11 08:11:31;;;;;;;;;;;6.40;99.90;;;;;;5084370;27;19916;-56
2022/10/11 08:14:30;;;;;;;;;;;6.50;99.90;;;;;;5099696;27;20013;-56
2022/10/11 08:17:28;;;;;;;;;;;6.70;99.90;;;;;;5146473;27;19915;-56
2022/10/11 08:20:37;;;;;;;;;;;6.80;99.90;;;;;;5123727;27;19923;-57
2022/10/11 08:23:43;;;;;;;;;;;7.00;99.90;;;;;;5106968;27;20316;-56
2022/10/11 08:26:38;;;;;;;;;;;7.10;99.90;;;;;;5105861;27;20015;-56
2022/10/11 08:29:31;;;;;;;;;;;7.20;99.90;;;;;;5107962;28;19917;-57
2022/10/11 08:32:28;;;;;;;;;;;7.30;99.90;;;;;;5085647;27;19923;-56
2022/10/11 08:35:28;;;;;;;;;;;7.50;99.90;;;;;;5100907;27;19942;-55
2022/10/11 08:38:28;;;;;;;;;;;7.60;99.90;;;;;;5106299;27;19986;-56
2022/10/11 08:41:35;;;;;;;;;;;7.70;99.90;;;;;;5024908;27;20304;-56
2022/10/11 08:44:41;;;;;;;;;;;7.80;99.90;;;;;;5012323;28;19926;-56
2022/10/11 08:47:35;;;;;;;;;;;7.90;99.90;;;;;;5018275;28;20268;-56
2022/10/11 08:50:25;;;;;;;;;;;8.00;99.90;;;;;;5005799;28;19933;-56
2022/10/11 08:53:29;;;;;;;;;;;8.00;99.90;;;;;;5042981;28;19931;-56
2022/10/11 08:56:00;;;;;;;;;;;8.20;99.90;;;;;;5004571;28;20397;-56
2022/10/11 08:58:37;;;;;;;;;;;8.20;99.90;;;;;;5066185;28;19999;-55
2022/10/11 09:01:12;;;;;;;;;;;8.30;99.90;;;;;;4998080;28;20308;-56
2022/10/11 09:03:40;;;;;;;;;;;8.40;99.90;;;;;;5068529;28;19934;-55
2022/10/11 09:06:11;;;;;;;;;;;8.50;99.90;;;;;;5001817;28;20351;-55
2022/10/11 09:08:57;;;;;;;;;;;8.60;99.90;;;;;;5040261;28;19929;-55
2022/10/11 09:11:28;;;;;;;;;;;8.70;99.90;;;;;;5051319;28;19933;-55
2022/10/11 09:14:14;;;;;;;;;;;8.90;99.90;;;;;;5056802;28;19924;-55
2022/10/11 09:16:51;;;;;;;;;;;9.00;99.90;;;;;;5067720;28;19925;-55
2022/10/11 09:19:36;;;;;;;;;;;9.20;99.90;;;;;;5031752;28;19932;-56
2022/10/11 09:22:06;;;;;;;;;;;9.30;99.90;;;;;;5008458;28;19932;-55
2022/10/11 09:24:35;;;;;;;;;;;9.50;99.90;;;;;;5031453;28;19948;-56
2022/10/11 09:27:16;;;;;;;;;;;9.60;99.90;;;;;;5017651;28;19933;-55
2022/10/11 09:29:46;;;;;;;;;;;9.70;99.90;;;;;;4994923;28;19940;-55
2022/10/11 09:32:15;;;;;;;;;;;9.90;99.90;;;;;;5073806;28;20657;-55
2022/10/11 09:34:42;;;;;;;;;;;10.00;99.90;;;;;;5074958;28;19930;-55
2022/10/11 09:37:13;;;;;;;;;;;10.10;99.90;;;;;;5014557;28;19933;-57
2022/10/11 09:39:44;;;;;;;;;;;10.30;99.90;;;;;;5046694;28;20313;-61
2022/10/11 09:42:11;;;;;;;;;;;10.40;99.90;;;;;;5021995;28;19936;-57
2022/10/11 09:44:44;;;;;;;;;;;10.60;99.90;;;;;;5017228;28;19937;-56
2022/10/11 09:47:23;;;;;;;;;;;10.70;99.90;;;;;;5078617;28;20270;-56
2022/10/11 09:49:53;;;;;;;;;;;10.80;99.90;;;;;;5004779;28;19937;-56
2022/10/11 09:52:21;;;;;;;;;;;11.00;99.90;;;;;;5001725;28;19944;-56
2022/10/11 09:54:56;;;;;;;;;;;11.10;99.90;;;;;;4991441;28;19948;-56
2022/10/11 09:57:24;;;;;;;;;;;11.30;99.90;;;;;;5000180;28;20112;-55
2022/10/11 09:59:58;;;;;;;;;;;11.40;99.90;;;;;;5006391;28;19930;-56
2022/10/11 10:02:30;;;;;;;;;;;11.60;99.90;;;;;;5056037;28;19930;-55
2022/10/11 10:05:09;;;;;;;;;;;11.80;99.90;;;;;;4987830;28;19930;-55
2022/10/11 10:07:39;;;;;;;;;;;12.00;99.90;;;;;;5017344;28;19924;-54
2022/10/11 10:10:25;;;;;;;;;;;12.80;99.90;;;;;;5024224;28;19925;-55
2022/10/11 10:12:54;;;;;;;;;;;12.30;99.90;;;;;;5064826;28;19933;-55
2022/10/11 10:15:22;;;;;;;;;;;12.40;99.90;;;;;;5087063;28;19928;-56
2022/10/11 10:17:50;;;;;;;;;;;12.50;99.90;;;;;;5014210;28;19928;-55
2022/10/11 10:20:19;;;;;;;;;;;12.60;99.90;;;;;;5090508;28;19935;-55
2022/10/11 10:22:46;;;;;;;;;;;12.70;99.90;;;;;;5090528;28;19931;-55
2022/10/11 10:25:28;;;;;;;;;;;12.70;99.90;;;;;;5026031;28;19926;-56
2022/10/11 10:27:57;;;;;;;;;;;12.80;99.90;;;;;;5030052;28;20326;-55
2022/10/11 10:30:25;;;;;;;;;;;12.80;99.90;;;;;;5090864;28;19924;-55
2022/10/11 10:32:53;;;;;;;;;;;12.80;99.90;;;;;;5062418;28;19926;-56
2022/10/11 10:35:26;;;;;;;;;;;12.80;99.90;;;;;;5072670;28;19928;-55
2022/10/11 10:38:09;;;;;;;;;;;12.90;99.90;;;;;;5090459;28;19931;-55
2022/10/11 10:40:39;;;;;;;;;;;12.90;99.90;;;;;;5083058;28;19924;-56
2022/10/11 10:43:14;;;;;;;;;;;13.00;99.90;;;;;;4971411;28;19948;-55
2022/10/11 10:45:55;;;;;;;;;;;13.10;99.90;;;;;;4986748;28;19936;-55
2022/10/11 10:48:42;;;;;;;;;;;13.30;99.90;;;;;;4991642;28;20343;-55
2022/10/11 10:51:46;;;;;;;;;;;13.40;99.90;;;;;;4986951;28;19926;-55
2022/10/11 10:54:20;;;;;;;;;;;13.60;99.90;;;;;;5044148;28;20308;-57
2022/10/11 10:56:52;;;;;;;;;;;13.70;99.90;;;;;;4979307;28;19925;-57
2022/10/11 10:59:28;;;;;;;;;;;13.80;99.90;;;;;;5055748;28;19933;-55
2022/10/11 11:02:02;;;;;;;;;;;13.90;99.90;;;;;;4987690;28;19926;-55
2022/10/11 11:05:00;;;;;;;;;;;13.90;99.90;;;;;;5020118;28;19930;-55
2022/10/11 11:07:42;;;;;;;;;;;14.00;99.90;;;;;;5019345;28;19932;-55
2022/10/11 11:10:14;;;;;;;;;;;14.10;99.90;;;;;;5024986;28;19926;-56
2022/10/11 11:12:44;;;;;;;;;;;14.10;99.90;;;;;;4987735;28;19957;-55
2022/10/11 11:15:15;;;;;;;;;;;14.10;99.90;;;;;;4968121;28;19930;-55
2022/10/11 11:17:54;;;;;;;;;;;14.10;99.90;;;;;;5039462;28;19930;-55
2022/10/11 11:20:40;;;;;;;;;;;14.30;99.90;;;;;;4987463;28;19925;-55
2022/10/11 11:23:16;;;;;;;;;;;14.50;99.90;;;;;;5003820;28;19928;-56
2022/10/11 11:25:43;;;;;;;;;;;14.80;99.90;;;;;;5005549;28;19926;-56
2022/10/11 11:28:27;;;;;;;;;;;15.20;99.90;;;;;;5079517;28;19998;-54
2022/10/11 11:30:54;;;;;;;;;;;15.40;99.90;;;;;;5087339;28;19924;-56
2022/10/11 11:33:35;;;;;;;;;;;15.60;99.90;;;;;;5061200;28;19931;-55
2022/10/11 11:36:08;;;;;;;;;;;15.70;99.90;;;;;;4991322;28;19926;-56
2022/10/11 11:38:48;;;;;;;;;;;15.80;99.90;;;;;;5049360;28;20303;-56
2022/10/11 11:41:21;;;;;;;;;;;16.00;99.90;;;;;;5034377;28;20403;-57
2022/10/11 11:44:09;;;;;;;;;;;16.20;99.90;;;;;;5059708;28;19939;-57
2022/10/11 11:46:41;;;;;;;;;;;16.30;99.90;;;;;;5089230;28;19931;-56
2022/10/11 11:49:35;;;;;;;;;;;16.20;99.90;;;;;;4997744;28;19949;-56
2022/10/11 11:52:04;;;;;;;;;;;16.00;99.00;;;;;;4968252;28;19933;-56
2022/10/11 11:54:38;;;;;;;;;;;15.70;99.50;;;;;;5039630;28;19934;-56
2022/10/11 11:57:05;;;;;;;;;;;15.70;99.90;;;;;;4986835;28;19933;-56
2022/10/11 11:59:42;;;;;;;;;;;15.80;99.90;;;;;;5088966;28;19924;-56
2022/10/11 12:02:28;;;;;;;;;;;15.70;99.00;;;;;;5019910;28;19929;-58
2022/10/11 12:04:55;;;;;;;;;;;15.60;99.30;;;;;;4972139;28;20442;-56
2022/10/11 12:07:24;;;;;;;;;;;15.40;99.40;;;;;;4991102;28;19926;-56
2022/10/11 12:10:14;;;;;;;;;;;15.20;99.10;;;;;;5068412;28;19930;-56
2022/10/11 12:12:42;;;;;;;;;;;15.10;99.80;;;;;;4971461;28;20304;-56
2022/10/11 12:15:21;;;;;;;;;;;14.90;99.30;;;;;;5070463;28;19963;-56
2022/10/11 12:17:51;;;;;;;;;;;14.80;99.90;;;;;;5104136;28;19924;-56
2022/10/11 12:20:22;;;;;;;;;;;14.70;99.90;;;;;;4973477;28;19934;-56
2022/10/11 12:22:49;;;;;;;;;;;14.70;99.90;;;;;;4983897;28;20399;-57
2022/10/11 12:25:27;;;;;;;;;;;14.80;99.90;;;;;;5013300;28;19933;-59
2022/10/11 12:27:55;;;;;;;;;;;15.00;99.90;;;;;;5032120;28;19924;-57
2022/10/11 12:30:41;;;;;;;;;;;15.20;99.90;;;;;;5085066;28;20255;-56
2022/10/11 12:33:16;;;;;;;;;;;15.10;99.90;;;;;;4994426;28;19933;-56
2022/10/11 12:35:50;;;;;;;;;;;15.00;99.90;;;;;;5085297;28;19924;-56
2022/10/11 12:38:25;;;;;;;;;;;14.90;99.90;;;;;;5066269;28;19925;-56
2022/10/11 12:41:13;;;;;;;;;;;14.70;99.90;;;;;;5084918;28;20717;-55
2022/10/11 12:43:40;;;;;;;;;;;14.50;99.90;;;;;;4997738;28;19952;-56
2022/10/11 12:46:26;;;;;;;;;;;14.40;99.90;;;;;;5005067;28;20555;-56
2022/10/11 12:49:02;;;;;;;;;;;14.40;99.90;;;;;;5065585;28;19924;-56
2022/10/11 12:51:37;;;;;;;;;;;14.30;99.90;;;;;;5055757;28;19932;-56
2022/10/11 12:54:19;;;;;;;;;;;14.30;99.90;;;;;;5038594;28;20302;-57
2022/10/11 12:57:06;;;;;;;;;;;14.30;99.90;;;;;;5051905;28;19937;-57
2022/10/11 12:59:41;;;;;;;;;;;14.20;99.90;;;;;;4988834;28;20379;-56
2022/10/11 13:02:38;;;;;;;;;;;14.20;99.90;;;;;;4984034;28;19926;-56
2022/10/11 13:05:21;;;;;;;;;;;14.10;99.90;;;;;;5079280;28;19931;-56
2022/10/11 13:07:49;;;;;;;;;;;14.00;99.90;;;;;;5054979;28;19926;-56
2022/10/11 13:10:21;;;;;;;;;;;13.90;99.90;;;;;;5006976;28;19934;-56
2022/10/11 13:12:49;;;;;;;;;;;13.90;99.90;;;;;;5005702;28;19933;-57
2022/10/11 13:15:20;;;;;;;;;;;13.80;99.90;;;;;;5053314;28;19952;-56
2022/10/11 13:17:50;;;;;;;;;;;13.80;99.90;;;;;;5021979;28;19931;-56
2022/10/11 13:20:20;;;;;;;;;;;13.80;99.90;;;;;;4985674;28;20300;-56
2022/10/11 13:22:49;;;;;;;;;;;13.70;99.90;;;;;;4981899;28;19926;-56
2022/10/11 13:25:19;;;;;;;;;;;13.70;99.90;;;;;;4984029;28;20304;-56
2022/10/11 13:27:47;;;;;;;;;;;13.60;99.90;;;;;;5029030;28;19924;-56
2022/10/11 13:30:17;;;;;;;;;;;13.60;99.90;;;;;;5091986;28;19928;-56
2022/10/11 13:32:45;;;;;;;;;;;13.60;99.90;;;;;;5091918;28;19925;-56
2022/10/11 13:35:34;;;;;;;;;;;13.60;99.90;;;;;;4994179;28;19949;-57
2022/10/11 13:38:02;;;;;;;;;;;13.50;99.90;;;;;;4990262;28;19930;-56
2022/10/11 13:40:30;;;;;;;;;;;13.50;99.90;;;;;;5073564;28;19931;-56
2022/10/11 13:42:58;;;;;;;;;;;13.50;99.90;;;;;;5091201;28;19924;-56
2022/10/11 13:45:26;;;;;;;;;;;13.50;99.90;;;;;;5074194;28;19924;-56
2022/10/11 13:47:54;;;;;;;;;;;13.50;99.90;;;;;;5091388;28;19964;-56
2022/10/11 13:50:29;;;;;;;;;;;13.60;99.90;;;;;;4975930;28;20384;-56
2022/10/11 13:53:00;;;;;;;;;;;13.60;99.90;;;;;;5043182;28;19937;-56
2022/10/11 13:55:30;;;;;;;;;;;13.70;99.90;;;;;;5013366;28;19926;-56
2022/10/11 13:57:59;;;;;;;;;;;13.80;99.90;;;;;;5009189;28;19934;-56
2022/10/11 14:00:26;;;;;;;;;;;13.90;99.90;;;;;;4972021;28;19926;-56
2022/10/11 14:02:56;;;;;;;;;;;14.00;99.90;;;;;;4970572;28;19927;-57
2022/10/11 14:05:24;;;;;;;;;;;14.10;99.90;;;;;;4999581;28;19927;-56
2022/10/11 14:07:52;;;;;;;;;;;14.20;99.90;;;;;;5054441;28;20452;-56
2022/10/11 14:10:20;;;;;;;;;;;14.30;99.90;;;;;;5010235;28;20625;-56
2022/10/11 14:13:20;;;;;;;;;;;14.40;99.90;;;;;;4968681;28;19932;-56
2022/10/11 14:15:58;;;;;;;;;;;14.50;99.90;;;;;;4969150;28;19988;-56
2022/10/11 14:18:32;;;;;;;;;;;14.60;99.90;;;;;;4982757;28;20301;-56
2022/10/11 14:21:20;;;;;;;;;;;14.70;99.90;;;;;;4991475;28;20376;-56
2022/10/11 14:23:50;;;;;;;;;;;14.70;99.90;;;;;;5036636;28;19933;-56
2022/10/11 14:26:19;;;;;;;;;;;14.70;99.90;;;;;;4993292;28;20273;-56
2022/10/11 14:28:51;;;;;;;;;;;14.70;99.90;;;;;;4992171;28;19934;-56
2022/10/11 14:31:19;;;;;;;;;;;14.70;99.90;;;;;;4980073;28;20328;-56
2022/10/11 14:33:46;;;;;;;;;;;14.80;99.90;;;;;;5054094;28;19949;-56
2022/10/11 14:36:14;;;;;;;;;;;14.80;99.90;;;;;;4992245;28;19936;-56
2022/10/11 14:38:41;;;;;;;;;;;14.80;99.90;;;;;;5079814;28;20379;-56
2022/10/11 14:41:09;;;;;;;;;;;14.80;99.90;;;;;;5053933;28;19944;-56
2022/10/11 14:43:36;;;;;;;;;;;14.70;99.90;;;;;;5071679;28;20426;-56
2022/10/11 14:46:04;;;;;;;;;;;14.60;99.90;;;;;;4986827;28;19926;-56
2022/10/11 14:48:32;;;;;;;;;;;14.60;99.90;;;;;;5072149;28;19927;-56
2022/10/11 14:51:25;;;;;;;;;;;14.50;99.90;;;;;;5010914;28;19930;-57
2022/10/11 14:53:53;;;;;;;;;;;14.50;99.90;;;;;;5027520;28;19928;-56
2022/10/11 14:56:20;;;;;;;;;;;14.40;99.90;;;;;;5072606;28;20422;-57
2022/10/11 14:58:48;;;;;;;;;;;14.40;99.90;;;;;;5040042;28;19927;-56
2022/10/11 15:01:16;;;;;;;;;;;14.40;99.90;;;;;;4969476;28;20389;-57
2022/10/11 15:03:44;;;;;;;;;;;14.40;99.90;;;;;;5008569;28;19928;-57
2022/10/11 15:06:19;;;;;;;;;;;14.40;99.90;;;;;;5070858;28;20297;-56
2022/10/11 15:08:47;;;;;;;;;;;14.30;99.90;;;;;;5062439;28;19932;-56
2022/10/11 15:11:16;;;;;;;;;;;14.30;99.90;;;;;;4998748;28;19948;-57
2022/10/11 15:13:43;;;;;;;;;;;14.30;99.90;;;;;;4984241;28;19926;-57
2022/10/11 15:16:11;;;;;;;;;;;14.30;99.90;;;;;;4982959;28;19926;-56
2022/10/11 15:18:39;;;;;;;;;;;14.30;99.90;;;;;;5019576;28;19926;-57
2022/10/11 15:21:10;;;;;;;;;;;14.40;99.90;;;;;;4987799;28;19926;-56
2022/10/11 15:23:37;;;;;;;;;;;14.40;99.90;;;;;;5069296;28;20295;-56
2022/10/11 15:26:05;;;;;;;;;;;14.40;99.90;;;;;;5053175;28;19933;-56
2022/10/11 15:28:33;;;;;;;;;;;14.50;99.90;;;;;;5032239;28;19930;-56
2022/10/11 15:31:00;;;;;;;;;;;14.50;99.90;;;;;;4968766;28;19934;-56
2022/10/11 15:33:28;;;;;;;;;;;14.50;99.90;;;;;;5005739;28;19946;-56
2022/10/11 15:35:58;;;;;;;;;;;14.60;99.90;;;;;;5058610;28;19933;-56
2022/10/11 15:38:25;;;;;;;;;;;14.50;99.90;;;;;;5038286;28;19930;-57
2022/10/11 15:40:53;;;;;;;;;;;14.50;99.90;;;;;;5039248;28;19934;-56